Aeroporto :
LOGIN :

Iscrizione | Disclaimer

   EN    FR    IT 

 










Sommario :    VFR   VFR Marginale   IFR   IFR Intensivo   IFR Molto Intensivo
Visibilità : 
Base nubi : 
>= 8 km
>= 3000ft
5 / 8 km
1000 / 3000 ft
1500m / 5 km
500 / 1000 ft
800 / 1500m
200 / 500 ft
< 800m
< 200 ft
Simboli :   Temporali  Nebbia  Neve Forte  Precipitazioni Forti  Vento > 20 kt
SIGMETs :   Varie  Temporali  Ghiacco  Turbolenza  Onda orograficha  Ceneri Vulcaniche






- Altitudine del aeroporto : 446 ft
- Codice IATA : VNE


LFRV - Vannes-Meucon

ULTIMO METAR :
  • 062000Z AUTO 26006KT 230V290 9999 BKN009 OVC040 11/10 Q1016

METARs OBSOLETI :
  • 061930Z AUTO 25005KT 220V290 9999 BKN005 OVC040 11/10 Q1015
  • 061900Z AUTO 26005KT 220V300 9999 OVC005 11/11 Q1015
  • 061830Z AUTO 26006KT 230V290 9999 OVC004 11/11 Q1015
  • 061800Z AUTO 26007KT 220V290 9999 BKN006 OVC031 11/10 Q1015
  • 061730Z AUTO 27007KT 220V290 9999 BKN007 OVC039 11/11 Q1015

TAF N/A



MetMap, La meteo Aeronautica in un colpo d'occhio ! - Copyright ORBIFLY Dicembre 2007 - Disclaimer

ORBIFLY MET'MAP TEAM :

Programmazione e sviluppo : Alexandra Zaïnal
Concezione : Baudouin d'Aumeries
Aiuto per la programmazione : Marc-Olivier Méhu
Supporto tecnico e logistico : Manuel Goepfert
Aiuto per la traduzione : Arnaldo La Scala

Contatto : metmap@orbifly.com




FONTI E CREDITI :

   NOAA